Time;durP1;ratioP1;P1;durP2;ratioP2;P2;SDS_P1;SDS_P2;PMS_P1;PMS_P2;Temp;Humidity;BMP_temperature;BMP_pressure;BME280_temperature;BME280_humidity;BME280_pressure;Samples;Min_cycle;Max_cycle;Signal;HPM_P1;HPM_P2
2021/03/04 00:00:23;;;;;;;7.78;2.58;;;;;;;29.83;30.04;99012.16;5032454;28;20211;-62
2021/03/04 00:02:49;;;;;;;3.88;2.35;;;;;;;29.43;30.96;99008.25;5031819;28;20226;-62
2021/03/04 00:05:16;;;;;;;5.93;2.63;;;;;;;31.05;28.67;99003.78;5031869;28;20220;-61
2021/03/04 00:07:43;;;;;;;6.13;2.28;;;;;;;30.11;29.85;98991.63;5031551;28;20227;-62
2021/03/04 00:10:12;;;;;;;6.05;2.70;;;;;;;29.67;30.43;98997.06;5032339;28;20204;-60
2021/03/04 00:12:39;;;;;;;7.55;2.20;;;;;;;29.71;30.68;98997.50;5031599;28;20662;-62
2021/03/04 00:15:06;;;;;;;6.70;2.33;;;;;;;30.28;29.46;98995.69;5031635;28;20235;-61
2021/03/04 00:17:32;;;;;;;5.55;2.50;;;;;;;29.68;30.10;99003.31;5031537;28;20702;-61
2021/03/04 00:19:58;;;;;;;8.02;2.40;;;;;;;29.30;30.87;99001.69;5031950;28;20203;-60
2021/03/04 00:22:24;;;;;;;4.15;2.40;;;;;;;30.83;28.60;99001.19;5031562;28;20301;-62
2021/03/04 00:24:50;;;;;;;5.82;2.75;;;;;;;29.73;30.30;98994.63;5031521;28;20717;-61
2021/03/04 00:27:17;;;;;;;5.45;2.30;;;;;;;29.34;30.79;98981.44;5031444;28;20192;-61
2021/03/04 00:29:43;;;;;;;5.03;2.47;;;;;;;30.86;29.06;98989.13;5031212;28;20651;-61
2021/03/04 00:32:09;;;;;;;5.47;2.28;;;;;;;30.00;29.86;98983.06;5031307;28;20659;-60
2021/03/04 00:34:35;;;;;;;5.60;2.58;;;;;;;29.56;30.40;98988.66;5031013;28;20678;-57
2021/03/04 00:37:02;;;;;;;6.03;2.35;;;;;;;30.09;30.03;98989.13;5031564;28;20203;-61
2021/03/04 00:39:28;;;;;;;4.63;2.20;;;;;;;30.16;29.72;98990.00;5031341;28;20389;-61
2021/03/04 00:41:54;;;;;;;4.72;2.35;;;;;;;29.51;30.54;98989.25;5031662;28;20203;-60
2021/03/04 00:44:21;;;;;;;4.63;2.33;;;;;;;29.26;31.15;98978.88;5031330;28;20231;-59
2021/03/04 00:46:47;;;;;;;4.68;2.47;;;;;;;30.51;29.03;98981.94;5031340;28;20255;-60
2021/03/04 00:49:13;;;;;;;5.55;2.58;;;;;;;29.61;30.46;98987.06;5031225;28;20212;-62
2021/03/04 00:51:39;;;;;;;6.28;2.50;;;;;;;29.29;30.53;98978.47;5030999;28;20208;-61
2021/03/04 00:54:07;;;;;;;4.30;2.40;;;;;;;30.73;29.01;98974.56;5031073;28;20216;-59
2021/03/04 00:56:33;;;;;;;4.57;2.25;;;;;;;29.79;29.63;98972.31;5031230;28;20331;-60
2021/03/04 00:58:59;;;;;;;5.47;2.05;;;;;;;29.23;30.73;98973.03;5031197;28;20549;-62
2021/03/04 01:01:26;;;;;;;6.60;2.50;;;;;;;30.49;29.37;98977.75;5030088;28;20208;-63
2021/03/04 01:03:53;;;;;;;3.67;2.30;;;;;;;30.22;29.53;98970.31;5030858;28;20239;-63
2021/03/04 01:06:19;;;;;;;4.60;2.35;;;;;;;29.74;30.27;98967.47;5031066;28;20200;-63
2021/03/04 01:08:47;;;;;;;5.15;2.40;;;;;;;29.36;30.51;98962.38;5031420;28;20554;-62
2021/03/04 01:11:14;;;;;;;3.75;1.85;;;;;;;30.62;28.79;98965.16;5031250;28;20258;-58
2021/03/04 01:13:40;;;;;;;5.22;2.60;;;;;;;29.58;30.29;98960.53;5031463;28;20246;-62
2021/03/04 01:16:06;;;;;;;6.60;2.28;;;;;;;29.22;30.58;98949.81;5030879;28;20204;-62
2021/03/04 01:18:33;;;;;;;4.22;2.20;;;;;;;30.88;28.64;98960.09;5031187;28;20215;-62
2021/03/04 01:21:00;;;;;;;3.90;2.25;;;;;;;29.86;29.80;98960.56;5031304;28;20211;-61
2021/03/04 01:23:26;;;;;;;4.47;2.10;;;;;;;29.45;30.25;98955.84;5030856;28;20235;-62
2021/03/04 01:25:52;;;;;;;4.05;2.05;;;;;;;30.81;28.38;98971.69;5031573;28;20226;-62
2021/03/04 01:28:19;;;;;;;3.78;2.00;;;;;;;29.96;29.94;98954.84;5031516;28;20283;-61
2021/03/04 01:30:45;;;;;;;5.60;2.45;;;;;;;29.52;30.51;98945.94;5030855;28;20214;-63
2021/03/04 01:33:11;;;;;;;4.53;1.85;;;;;;;29.72;30.19;98942.59;5030613;28;20588;-60
2021/03/04 01:35:38;;;;;;;4.72;2.13;;;;;;;30.26;28.62;98941.13;5030587;28;20276;-60
2021/03/04 01:38:04;;;;;;;6.00;2.38;;;;;;;29.70;30.09;98942.78;5030323;28;20199;-61
2021/03/04 01:40:30;;;;;;;4.78;2.15;;;;;;;29.11;30.93;98937.66;5030549;28;20628;-61
2021/03/04 01:42:56;;;;;;;5.55;2.45;;;;;;;30.72;28.54;98934.28;5030996;28;20232;-60
2021/03/04 01:45:22;;;;;;;5.13;2.35;;;;;;;29.83;30.21;98930.47;5031102;28;20503;-60
2021/03/04 01:47:50;;;;;;;4.90;2.00;;;;;;;29.30;30.59;98922.78;5030414;28;20203;-58
2021/03/04 01:50:18;;;;;;;5.45;2.58;;;;;;;31.03;28.26;98919.41;5030227;28;20426;-60
2021/03/04 01:52:45;;;;;;;3.92;2.28;;;;;;;29.96;29.75;98914.38;5030644;28;20200;-58
2021/03/04 01:55:14;;;;;;;3.72;2.10;;;;;;;29.49;29.83;98914.03;5030300;28;20714;-60
2021/03/04 01:57:43;;;;;;;4.53;2.05;;;;;;;30.37;29.46;98915.44;5030401;28;20193;-60
2021/03/04 02:00:10;;;;;;;4.13;2.30;;;;;;;30.21;29.18;98916.56;5030284;28;20299;-60
2021/03/04 02:02:36;;;;;;;5.10;2.60;;;;;;;29.56;30.21;98910.53;5030560;28;20228;-59
2021/03/04 02:05:06;;;;;;;5.00;2.22;;;;;;;29.17;30.78;98907.31;5030195;28;20311;-60
2021/03/04 02:07:42;;;;;;;4.05;2.13;;;;;;;30.41;29.13;98911.31;5029921;28;20272;-60
2021/03/04 02:10:17;;;;;;;8.45;2.00;;;;;;;29.58;30.06;98911.16;5030084;28;20196;-61
2021/03/04 02:12:48;;;;;;;4.30;2.00;;;;;;;29.05;30.70;98906.97;5031006;28;20658;-61
2021/03/04 02:15:18;;;;;;;3.85;1.92;;;;;;;30.95;28.36;98901.56;5033555;28;20687;-60
2021/03/04 02:17:48;;;;;;;4.78;2.20;;;;;;;29.82;29.94;98894.59;5033891;28;20204;-61
2021/03/04 02:20:28;;;;;;;3.78;2.03;;;;;;;29.36;30.98;98892.34;5033647;28;20200;-61
2021/03/04 02:23:08;;;;;;;4.13;2.13;;;;;;;29.24;30.76;98885.84;5033894;28;20602;-61
2021/03/04 02:25:44;;;;;;;5.30;2.05;;;;;;;31.72;27.20;98886.63;5033836;28;20208;-61
2021/03/04 02:28:12;;;;;;;4.82;2.05;;;;;;;30.29;29.04;98880.53;5034131;28;20219;-58
2021/03/04 02:30:41;;;;;;;6.50;2.20;;;;;;;30.06;29.43;98890.59;5033670;28;20618;-59
2021/03/04 02:33:13;;;;;;;3.53;1.95;;;;;;;31.12;27.91;98885.78;5033881;28;20206;-60
2021/03/04 02:35:42;;;;;;;4.55;2.05;;;;;;;30.26;29.38;98876.38;5033433;28;20678;-61
2021/03/04 02:38:15;;;;;;;3.88;2.03;;;;;;;29.85;29.93;98875.31;5033590;28;20204;-61
2021/03/04 02:40:43;;;;;;;3.65;1.90;;;;;;;31.03;27.94;98874.34;5033838;28;20562;-62
2021/03/04 02:43:16;;;;;;;4.65;2.20;;;;;;;30.13;29.29;98870.91;5033376;28;20235;-61
2021/03/04 02:45:43;;;;;;;5.00;1.80;;;;;;;29.46;30.57;98865.06;5033524;28;20261;-62
2021/03/04 02:48:11;;;;;;;5.10;1.95;;;;;;;31.10;27.92;98861.69;5033278;28;20576;-61
2021/03/04 02:50:38;;;;;;;4.63;2.20;;;;;;;30.17;29.28;98867.59;5033730;28;20524;-61
2021/03/04 02:53:05;;;;;;;3.67;2.13;;;;;;;29.49;30.01;98862.00;5033227;28;20222;-59
2021/03/04 02:55:33;;;;;;;4.35;2.10;;;;;;;30.95;28.69;98861.88;5033501;28;20211;-61
2021/03/04 02:58:00;;;;;;;4.68;2.03;;;;;;;30.23;29.13;98866.81;5034060;28;20227;-59
2021/03/04 03:00:30;;;;;;;6.13;2.15;;;;;;;29.52;30.06;98862.44;5033459;28;20226;-61
2021/03/04 03:02:59;;;;;;;2.67;1.70;;;;;;;30.08;29.36;98858.03;5033062;28;20224;-62
2021/03/04 03:05:29;;;;;;;4.20;1.90;;;;;;;30.52;28.58;98845.97;5033042;28;20204;-61
2021/03/04 03:07:56;;;;;;;5.80;2.05;;;;;;;29.77;29.74;98853.06;5033075;28;20203;-61
2021/03/04 03:10:23;;;;;;;5.13;2.13;;;;;;;29.23;30.42;98841.06;5033094;28;20269;-61
2021/03/04 03:12:50;;;;;;;4.78;1.60;;;;;;;30.66;28.86;98851.41;5032664;28;20204;-61
2021/03/04 03:15:18;;;;;;;4.05;2.08;;;;;;;29.84;29.59;98846.72;5032897;28;20216;-61
2021/03/04 03:17:46;;;;;;;4.35;1.92;;;;;;;29.26;30.47;98840.69;5032959;28;20208;-61
2021/03/04 03:20:15;;;;;;;4.65;2.10;;;;;;;31.12;28.37;98832.59;5032854;28;20509;-61
2021/03/04 03:22:41;;;;;;;6.35;2.00;;;;;;;30.07;29.50;98841.00;5032710;28;20212;-61
2021/03/04 03:25:09;;;;;;;3.10;1.77;;;;;;;29.59;29.76;98846.31;5032115;28;20221;-60
2021/03/04 03:27:36;;;;;;;5.45;1.75;;;;;;;30.73;28.95;98845.00;5032803;28;20266;-61
2021/03/04 03:30:06;;;;;;;3.88;1.90;;;;;;;30.27;29.11;98846.47;5032598;28;20200;-61
2021/03/04 03:32:32;;;;;;;3.92;2.10;;;;;;;29.57;29.96;98845.69;5032787;28;20243;-62
2021/03/04 03:35:00;;;;;;;4.28;1.95;;;;;;;29.66;30.11;98841.81;5032707;28;20231;-63
2021/03/04 03:37:28;;;;;;;5.35;2.10;;;;;;;30.52;28.56;98843.28;5032680;28;20204;-63
2021/03/04 03:39:56;;;;;;;3.08;1.88;;;;;;;29.74;29.74;98843.50;5032529;28;20204;-63
2021/03/04 03:42:22;;;;;;;3.25;1.90;;;;;;;29.27;30.35;98843.19;5032114;28;20717;-62
2021/03/04 03:44:50;;;;;;;3.10;1.88;;;;;;;30.74;28.24;98837.72;5032201;28;20228;-60
2021/03/04 03:47:17;;;;;;;2.90;1.92;;;;;;;29.93;29.63;98839.28;5032162;28;20237;-55
2021/03/04 03:49:44;;;;;;;2.92;1.80;;;;;;;29.26;30.33;98840.69;5032363;28;20204;-61
2021/03/04 03:52:12;;;;;;;3.20;1.90;;;;;;;30.98;28.37;98839.03;5032528;28;20230;-61
2021/03/04 03:54:38;;;;;;;3.35;1.92;;;;;;;30.08;29.57;98834.59;5032159;28;20242;-58
2021/03/04 03:57:06;;;;;;;2.63;1.63;;;;;;;29.49;29.87;98830.50;5032489;28;20350;-61
2021/03/04 03:59:32;;;;;;;3.53;1.70;;;;;;;30.21;29.41;98836.53;5032325;28;20204;-60
2021/03/04 04:02:00;;;;;;;3.25;1.73;;;;;;;30.31;28.84;98827.19;5032357;28;20215;-60
2021/03/04 04:04:27;;;;;;;3.08;2.08;;;;;;;29.64;29.68;98824.16;5031723;28;20295;-60
2021/03/04 04:06:54;;;;;;;3.67;1.80;;;;;;;29.32;30.32;98821.88;5032043;28;20204;-60
2021/03/04 04:09:22;;;;;;;4.30;1.67;;;;;;;30.57;28.79;98819.22;5032347;28;20279;-60
2021/03/04 04:11:48;;;;;;;5.05;1.70;;;;;;;29.77;29.45;98818.03;5031807;28;20276;-59
2021/03/04 04:14:14;;;;;;;2.95;1.80;;;;;;;29.26;30.09;98808.38;5031536;28;20729;-61
2021/03/04 04:16:41;;;;;;;2.70;1.58;;;;;;;30.61;28.55;98806.13;5031781;28;20353;-61
2021/03/04 04:19:07;;;;;;;4.32;1.38;;;;;;;29.11;30.52;98803.03;5031586;28;20234;-60
2021/03/04 04:21:34;;;;;;;3.42;1.70;;;;;;;28.65;30.98;98798.94;5031495;28;20249;-61
2021/03/04 04:24:00;;;;;;;3.47;1.90;;;;;;;29.86;30.01;98806.06;5031307;28;20269;-61
2021/03/04 04:26:27;;;;;;;2.53;1.48;;;;;;;30.59;28.42;98797.41;5031475;28;20199;-61
2021/03/04 04:28:53;;;;;;;4.53;1.67;;;;;;;29.93;29.34;98801.56;5031300;28;20655;-62
2021/03/04 04:31:20;;;;;;;3.08;1.60;;;;;;;29.66;29.83;98801.41;5031252;28;20204;-60
2021/03/04 04:33:46;;;;;;;3.50;1.77;;;;;;;30.65;28.54;98799.31;5031240;28;20707;-60
2021/03/04 04:36:13;;;;;;;4.75;1.92;;;;;;;28.70;30.96;98790.28;5030366;28;20674;-61
2021/03/04 04:38:39;;;;;;;3.40;1.90;;;;;;;28.09;31.85;98796.00;5031160;28;20693;-61
2021/03/04 04:41:06;;;;;;;3.15;1.85;;;;;;;28.94;30.93;98791.72;5031571;28;20540;-61
2021/03/04 04:43:33;;;;;;;4.07;2.13;;;;;;;30.88;28.25;98788.13;5031158;28;20235;-60
2021/03/04 04:45:59;;;;;;;3.63;1.85;;;;;;;31.36;27.94;98790.59;5031520;28;20215;-61
2021/03/04 04:48:25;;;;;;;2.33;1.60;;;;;;;30.15;29.42;98791.47;5031635;28;20310;-60
2021/03/04 04:50:51;;;;;;;3.20;1.77;;;;;;;30.00;29.52;98782.72;5031291;28;20211;-61
2021/03/04 04:53:17;;;;;;;3.50;1.65;;;;;;;31.64;26.84;98778.72;5031519;28;20277;-59
2021/03/04 04:55:43;;;;;;;3.33;1.70;;;;;;;30.66;28.58;98778.53;5030981;28;20211;-58
2021/03/04 04:58:09;;;;;;;2.92;1.50;;;;;;;30.00;29.47;98777.31;5031621;28;20212;-60
2021/03/04 05:00:37;;;;;;;3.30;1.60;;;;;;;29.77;29.81;98770.38;5031400;28;20701;-61
2021/03/04 05:03:03;;;;;;;3.25;1.85;;;;;;;31.79;27.23;98766.81;5030969;28;20263;-60
2021/03/04 05:05:29;;;;;;;3.58;1.55;;;;;;;30.51;28.76;98768.78;5031302;28;20208;-60
2021/03/04 05:07:55;;;;;;;2.60;1.80;;;;;;;30.08;29.56;98759.09;5030729;28;20199;-62
2021/03/04 05:10:21;;;;;;;5.03;1.70;;;;;;;30.65;28.57;98763.41;5030774;28;20222;-62
2021/03/04 05:12:47;;;;;;;4.22;1.70;;;;;;;31.32;27.78;98767.75;5030723;28;20735;-61
2021/03/04 05:15:14;;;;;;;2.90;1.52;;;;;;;30.15;29.04;98767.19;5030752;28;20231;-61
2021/03/04 05:17:41;;;;;;;4.53;1.80;;;;;;;29.97;29.70;98758.84;5031050;28;20208;-61
2021/03/04 05:20:08;;;;;;;3.05;1.88;;;;;;;31.30;27.81;98759.03;5030938;28;20680;-62
2021/03/04 05:22:35;;;;;;;3.90;1.88;;;;;;;30.94;28.21;98754.94;5031403;28;20234;-62
2021/03/04 05:25:01;;;;;;;2.95;1.60;;;;;;;30.16;29.27;98750.00;5031157;28;20232;-60
2021/03/04 05:27:27;;;;;;;3.90;1.98;;;;;;;29.57;30.08;98750.56;5031334;28;20709;-57
2021/03/04 05:29:53;;;;;;;3.72;1.83;;;;;;;31.56;27.74;98745.69;5031135;28;20210;-61
2021/03/04 05:32:20;;;;;;;3.13;1.60;;;;;;;30.70;28.57;98737.44;5031239;28;20219;-62
2021/03/04 05:34:46;;;;;;;4.65;1.70;;;;;;;29.42;30.25;98745.28;5030517;28;20219;-62
2021/03/04 05:37:13;;;;;;;6.85;2.13;;;;;;;28.89;30.80;98741.16;5030857;28;20204;-61
2021/03/04 05:39:39;;;;;;;3.97;1.67;;;;;;;30.08;29.25;98734.81;5030544;28;20184;-62
2021/03/04 05:42:06;;;;;;;5.28;2.00;;;;;;;31.46;28.16;98735.28;5031036;28;20207;-59
2021/03/04 05:44:33;;;;;;;5.70;1.80;;;;;;;31.17;27.95;98740.13;5030855;28;20234;-62
2021/03/04 05:46:59;;;;;;;5.10;2.03;;;;;;;30.20;29.29;98732.34;5030555;28;20655;-62
2021/03/04 05:49:29;;;;;;;5.53;2.00;;;;;;;29.57;30.14;98737.91;5034815;28;20211;-62
2021/03/04 05:51:59;;;;;;;3.67;1.63;;;;;;;31.35;28.13;98732.19;5034411;28;20353;-62
2021/03/04 05:54:28;;;;;;;2.47;1.60;;;;;;;31.20;27.96;98738.91;5034848;28;20220;-62
2021/03/04 05:56:55;;;;;;;4.22;1.70;;;;;;;30.14;29.23;98733.16;5034539;28;20208;-55
2021/03/04 05:59:24;;;;;;;2.78;1.67;;;;;;;29.72;29.77;98724.28;5034773;28;20214;-62
2021/03/04 06:01:51;;;;;;;5.40;2.00;;;;;;;31.18;28.20;98723.72;5034980;28;20524;-62
2021/03/04 06:04:17;;;;;;;4.55;1.90;;;;;;;31.47;27.19;98724.25;5034116;28;20231;-62
2021/03/04 06:06:43;;;;;;;5.32;1.50;;;;;;;30.24;28.97;98717.44;5034334;28;20204;-55
2021/03/04 06:09:10;;;;;;;2.95;1.60;;;;;;;30.03;29.20;98720.31;5034404;28;20200;-62
2021/03/04 06:11:37;;;;;;;4.60;1.98;;;;;;;31.28;27.66;98723.28;5034324;28;20200;-62
2021/03/04 06:14:04;;;;;;;3.90;1.95;;;;;;;31.34;27.65;98721.59;5034181;28;20232;-62
2021/03/04 06:16:30;;;;;;;5.13;1.80;;;;;;;30.28;28.91;98715.16;5034378;28;20261;-62
2021/03/04 06:18:57;;;;;;;4.70;1.88;;;;;;;29.66;29.74;98720.56;5033834;28;20208;-62
2021/03/04 06:21:24;;;;;;;4.18;1.80;;;;;;;31.67;27.19;98718.00;5033862;28;20230;-62
2021/03/04 06:23:52;;;;;;;4.03;1.92;;;;;;;30.57;28.17;98719.38;5033947;28;20232;-60
2021/03/04 06:26:35;;;;;;;6.13;2.45;;;;;;;30.15;30.05;98718.66;5033723;28;20226;-63
2021/03/04 06:29:11;;;;;;;5.35;1.80;;;;;;;30.56;29.33;98715.03;5034337;28;20188;-64
2021/03/04 06:31:37;;;;;;;17.35;3.47;;;;;;;32.01;27.85;98716.81;5034402;28;20191;-71
2021/03/04 06:34:14;;;;;;;20.98;4.00;;;;;;;30.66;29.88;98717.31;5033724;28;20220;-69
2021/03/04 06:36:51;;;;;;;27.45;3.17;;;;;;;30.43;30.12;98713.13;5034211;28;20200;-70
2021/03/04 06:39:17;;;;;;;11.60;3.17;;;;;;;31.92;28.88;98726.19;5034287;28;20492;-70
2021/03/04 06:41:44;;;;;;;21.58;4.10;;;;;;;32.12;27.58;98728.00;5033851;28;20217;-74
2021/03/04 06:44:10;;;;;;;17.25;3.10;;;;;;;31.05;29.23;98722.91;5033577;28;20232;-72
2021/03/04 06:46:44;;;;;;;17.23;3.22;;;;;;;30.75;29.12;98716.03;5034341;28;20237;-73
2021/03/04 06:49:10;;;;;;;10.30;3.22;;;;;;;30.46;29.72;98714.59;5033876;28;20575;-73
2021/03/04 06:51:42;;;;;;;12.07;3.00;;;;;;;29.77;30.16;98712.91;5034856;28;20347;-72
2021/03/04 06:54:09;;;;;;;19.33;3.63;;;;;;;29.10;31.70;98715.25;5033932;28;20228;-71
2021/03/04 06:56:35;;;;;;;12.82;3.00;;;;;;;30.43;29.49;98705.03;5033613;28;20220;-70
2021/03/04 06:59:03;;;;;;;16.80;2.92;;;;;;;31.94;27.90;98715.97;5032677;28;20211;-70
2021/03/04 07:01:29;;;;;;;11.98;2.83;;;;;;;32.33;27.06;98714.13;5033668;28;20208;-70
2021/03/04 07:03:56;;;;;;;12.07;2.97;;;;;;;31.52;27.38;98716.38;5033552;28;20235;-70
2021/03/04 07:06:23;;;;;;;10.55;2.45;;;;;;;30.84;28.66;98719.34;5033728;28;20298;-65
2021/03/04 07:08:50;;;;;;;7.60;2.58;;;;;;;32.89;26.75;98725.16;5033986;28;20532;-66
2021/03/04 07:11:18;;;;;;;12.55;2.65;;;;;;;31.63;28.18;98724.88;5033862;28;20240;-64
2021/03/04 07:13:46;;;;;;;7.47;2.50;;;;;;;31.26;28.52;98724.53;5033567;28;20609;-65
2021/03/04 07:16:17;;;;;;;18.08;3.85;;;;;;;31.21;28.85;98710.81;5034273;28;20263;-67
2021/03/04 07:18:46;;;;;;;30.63;3.78;;;;;;;32.18;27.86;98721.72;5033492;28;20191;-67
2021/03/04 07:21:14;;;;;;;29.50;4.97;;;;;;;31.23;28.08;98709.59;5033217;28;20215;-69
2021/03/04 07:23:41;;;;;;;22.95;4.05;;;;;;;31.09;29.29;98713.34;5033390;28;20236;-69
2021/03/04 07:26:10;;;;;;;14.27;3.38;;;;;;;32.38;27.43;98703.47;5033540;28;20188;-69
2021/03/04 07:28:37;;;;;;;11.20;3.30;;;;;;;32.18;27.87;98705.50;5033754;28;20204;-70
2021/03/04 07:31:05;;;;;;;17.38;3.03;;;;;;;31.27;28.62;98702.69;5033297;28;20598;-68
2021/03/04 07:33:34;;;;;;;10.00;3.33;;;;;;;31.04;28.56;98713.16;5032848;28;20605;-69
2021/03/04 07:36:05;;;;;;;14.00;3.38;;;;;;;30.26;29.29;98701.88;5033004;28;20184;-68
2021/03/04 07:38:32;;;;;;;12.75;3.25;;;;;;;30.72;28.80;98702.16;5033189;28;20203;-68
2021/03/04 07:41:06;;;;;;;7.85;3.58;;;;;;;32.00;27.32;98707.00;5033011;28;20243;-69
2021/03/04 07:43:50;;;;;;;13.07;3.55;;;;;;;32.88;25.61;98712.69;5032573;28;20708;-69
2021/03/04 07:46:34;;;;;;;8.75;3.22;;;;;;;32.69;25.83;98706.38;5032763;28;20188;-67
2021/03/04 07:49:02;;;;;;;18.63;3.03;;;;;;;31.59;27.97;98693.91;5032682;28;20321;-68
2021/03/04 07:51:29;;;;;;;8.30;3.28;;;;;;;31.16;27.67;98697.97;5032424;28;20210;-67
2021/03/04 07:53:55;;;;;;;7.10;2.60;;;;;;;32.36;26.21;98691.19;5032790;28;20230;-67
2021/03/04 07:56:26;;;;;;;15.23;3.15;;;;;;;32.47;26.26;98693.22;5032983;28;20196;-69
2021/03/04 07:58:53;;;;;;;9.48;3.05;;;;;;;31.21;28.04;98684.66;5032936;28;20185;-68
2021/03/04 08:01:20;;;;;;;6.68;2.88;;;;;;;30.83;28.33;98681.78;5033339;28;20184;-66
2021/03/04 08:03:48;;;;;;;19.85;3.38;;;;;;;32.31;26.46;98678.34;5032750;28;20650;-69
2021/03/04 08:06:16;;;;;;;19.35;4.53;;;;;;;31.62;24.27;98683.50;5034135;28;20188;-74
2021/03/04 08:08:44;;;;;;;15.63;3.97;;;;;;;30.27;27.64;98683.81;5033419;28;20258;-73
2021/03/04 08:11:22;;;;;;;10.63;3.35;;;;;;;29.99;28.82;98678.59;5033123;28;20578;-71
2021/03/04 08:13:49;;;;;;;10.38;3.20;;;;;;;29.91;29.37;98678.78;5033144;28;20243;-72
2021/03/04 08:16:16;;;;;;;10.63;3.30;;;;;;;30.26;29.00;98679.47;5033267;28;20212;-72
2021/03/04 08:18:45;;;;;;;11.63;3.25;;;;;;;31.84;27.42;98681.31;5033445;28;20603;-72
2021/03/04 08:21:11;;;;;;;7.57;2.85;;;;;;;32.72;26.76;98684.28;5032949;28;20227;-72
2021/03/04 08:23:43;;;;;;;8.98;2.72;;;;;;;33.09;26.02;98676.22;5032494;28;20224;-73
2021/03/04 08:26:23;;;;;;;8.70;2.70;;;;;;;33.67;25.22;98669.53;5032753;28;20264;-72
2021/03/04 08:28:50;;;;;;;7.10;2.90;;;;;;;33.50;25.41;98670.13;5032296;28;20200;-72
2021/03/04 08:31:16;;;;;;;7.55;2.75;;;;;;;32.52;26.27;98660.88;5032741;28;20281;-71
2021/03/04 08:33:53;;;;;;;7.95;2.38;;;;;;;32.40;26.58;98657.25;5032172;28;20224;-73
2021/03/04 08:36:20;;;;;;;9.02;2.55;;;;;;;33.24;26.34;98656.91;5032279;28;20648;-73
2021/03/04 08:38:47;;;;;;;9.32;2.42;;;;;;;33.71;25.10;98654.50;5032535;28;20189;-73
2021/03/04 08:41:22;;;;;;;14.98;2.92;;;;;;;32.28;27.72;98647.13;5032277;28;20668;-73
2021/03/04 08:43:51;;;;;;;9.52;2.63;;;;;;;31.71;27.63;98641.66;5031883;28;20231;-73
2021/03/04 08:46:18;;;;;;;8.77;2.70;;;;;;;31.50;28.30;98641.94;5032094;28;20192;-74
2021/03/04 08:48:45;;;;;;;5.47;2.67;;;;;;;32.33;26.88;98643.78;5032418;28;20203;-72
2021/03/04 08:51:12;;;;;;;10.65;2.30;;;;;;;33.37;25.67;98643.19;5032070;28;20204;-72
2021/03/04 08:53:39;;;;;;;8.02;2.30;;;;;;;32.70;26.95;98637.66;5031792;28;20224;-73
2021/03/04 08:56:08;;;;;;;7.13;2.30;;;;;;;31.87;27.67;98631.38;5031617;28;20277;-73
2021/03/04 08:58:42;;;;;;;7.57;2.50;;;;;;;31.17;28.79;98629.41;5031636;28;20204;-73
2021/03/04 09:01:08;;;;;;;9.40;2.67;;;;;;;32.23;27.53;98633.44;5031726;28;20281;-72
2021/03/04 09:03:36;;;;;;;6.63;2.45;;;;;;;33.04;26.63;98627.31;5031127;28;20278;-65
2021/03/04 09:06:06;;;;;;;6.43;1.98;;;;;;;32.19;27.37;98628.69;5031506;28;20215;-73
2021/03/04 09:08:34;;;;;;;5.97;2.33;;;;;;;31.45;27.67;98620.97;5031750;28;20246;-66
2021/03/04 09:11:01;;;;;;;6.90;2.35;;;;;;;31.04;28.63;98613.22;5031832;28;20694;-66
2021/03/04 09:13:29;;;;;;;13.75;3.20;;;;;;;32.16;27.81;98621.00;5034037;28;20251;-64
2021/03/04 09:16:02;;;;;;;4.25;1.80;;;;;;;32.76;26.28;98615.94;5036081;28;20663;-66
2021/03/04 09:18:30;;;;;;;6.35;2.40;;;;;;;31.57;28.34;98615.75;5033267;28;20210;-66
2021/03/04 09:20:57;;;;;;;3.35;2.00;;;;;;;30.88;28.97;98612.63;5034949;28;20212;-66
2021/03/04 09:23:23;;;;;;;7.57;2.17;;;;;;;30.98;28.63;98604.94;5035478;28;20354;-66
2021/03/04 09:25:54;;;;;;;6.05;2.33;;;;;;;32.04;27.60;98608.19;5035048;28;20635;-65
2021/03/04 09:28:21;;;;;;;3.60;1.83;;;;;;;32.51;26.82;98606.97;5032331;28;20220;-66
2021/03/04 09:30:48;;;;;;;6.75;2.22;;;;;;;31.50;27.74;98601.41;5032165;28;20188;-66
2021/03/04 09:33:16;;;;;;;12.95;5.13;;;;;;;29.42;21.67;98597.97;5031136;28;20276;-64
2021/03/04 09:35:53;;;;;;;15.90;5.43;;;;;;;30.55;20.27;98602.72;5030993;28;20571;-64
2021/03/04 09:38:20;;;;;;;20.02;5.63;;;;;;;30.91;19.26;98614.91;5031690;28;20280;-66
2021/03/04 09:40:46;;;;;;;22.10;4.57;;;;;;;31.85;21.54;98603.72;5031532;28;20196;-65
2021/03/04 09:43:16;;;;;;;15.25;4.57;;;;;;;31.58;23.60;98587.69;5031781;28;20260;-73
2021/03/04 09:45:48;;;;;;;12.43;3.28;;;;;;;31.56;25.14;98588.94;5033271;28;20533;-73
2021/03/04 09:48:15;;;;;;;19.83;3.35;;;;;;;32.17;25.04;98582.91;5032413;28;20227;-73
2021/03/04 09:50:52;;;;;;;8.60;3.45;;;;;;;33.37;24.20;98578.16;5033180;28;20196;-73
2021/03/04 09:53:19;;;;;;;9.23;3.25;;;;;;;33.37;23.37;98568.16;5032459;28;20220;-74
2021/03/04 09:55:46;;;;;;;9.68;3.10;;;;;;;32.33;25.59;98578.84;5031243;28;20250;-72
2021/03/04 09:58:14;;;;;;;10.90;2.90;;;;;;;31.78;26.43;98570.50;5031870;28;20297;-73
2021/03/04 10:00:41;;;;;;;11.23;2.65;;;;;;;32.57;26.05;98569.00;5031820;28;20242;-74
2021/03/04 10:03:11;;;;;;;8.70;2.63;;;;;;;33.60;25.05;98560.34;5031040;28;20277;-73
2021/03/04 10:05:46;;;;;;;10.85;2.65;;;;;;;33.54;25.36;98556.66;5030826;28;20227;-71
2021/03/04 10:08:13;;;;;;;7.80;2.78;;;;;;;32.56;26.01;98561.13;5030879;28;20184;-71
2021/03/04 10:10:40;;;;;;;17.75;3.05;;;;;;;31.94;27.18;98555.63;5031165;28;20589;-71
2021/03/04 10:13:06;;;;;;;6.32;2.60;;;;;;;32.97;25.36;98552.34;5031097;28;20276;-72
2021/03/04 10:15:34;;;;;;;10.20;2.67;;;;;;;33.97;25.49;98544.75;5031113;28;20204;-72
2021/03/04 10:18:03;;;;;;;5.28;2.03;;;;;;;32.85;26.73;98551.47;5031015;28;20189;-70
2021/03/04 10:20:30;;;;;;;10.80;2.70;;;;;;;32.19;27.22;98547.53;5031292;28;20247;-72
2021/03/04 10:22:56;;;;;;;8.63;2.33;;;;;;;32.20;26.81;98547.31;5031334;28;20200;-70
2021/03/04 10:25:23;;;;;;;9.63;2.63;;;;;;;33.72;24.89;98537.63;5031004;28;20271;-70
2021/03/04 10:27:49;;;;;;;5.55;2.50;;;;;;;33.67;25.75;98540.19;5031895;28;20204;-69
2021/03/04 10:30:16;;;;;;;5.38;2.50;;;;;;;32.44;26.97;98542.94;5030960;28;20303;-71
2021/03/04 10:32:43;;;;;;;6.57;2.55;;;;;;;31.92;27.95;98548.53;5031122;28;20208;-69
2021/03/04 10:35:11;;;;;;;5.90;2.17;;;;;;;33.01;26.09;98539.22;5031982;28;20228;-69
2021/03/04 10:37:39;;;;;;;7.28;2.25;;;;;;;34.11;25.85;98535.34;5034018;28;20211;-72
2021/03/04 10:40:07;;;;;;;4.82;2.17;;;;;;;33.29;26.32;98533.25;5034436;28;20188;-71
2021/03/04 10:42:33;;;;;;;4.97;2.13;;;;;;;32.50;27.31;98532.25;5034325;28;20275;-70
2021/03/04 10:45:00;;;;;;;6.32;2.72;;;;;;;31.35;25.57;98531.44;5034102;28;20228;-75
2021/03/04 10:47:26;;;;;;;5.75;2.08;;;;;;;32.26;25.48;98526.69;5034119;28;20234;-74
2021/03/04 10:49:53;;;;;;;13.02;2.45;;;;;;;32.60;25.03;98516.31;5034447;28;20192;-71
2021/03/04 10:52:19;;;;;;;6.00;2.70;;;;;;;31.16;26.93;98525.13;5034193;28;20232;-71
2021/03/04 10:54:46;;;;;;;6.82;2.05;;;;;;;30.84;27.70;98524.16;5034228;28;20304;-72
2021/03/04 10:57:12;;;;;;;9.07;2.22;;;;;;;31.54;27.34;98516.19;5033856;28;20200;-71
2021/03/04 10:59:39;;;;;;;4.72;2.20;;;;;;;32.80;25.92;98514.22;5033843;28;20208;-70
2021/03/04 11:02:05;;;;;;;6.28;2.22;;;;;;;32.00;27.19;98516.88;5034161;28;20531;-70
2021/03/04 11:04:31;;;;;;;5.85;2.00;;;;;;;31.35;27.27;98518.75;5033183;28;20259;-70
2021/03/04 11:06:57;;;;;;;7.28;2.42;;;;;;;30.94;28.22;98513.75;5033952;28;20276;-74
2021/03/04 11:09:23;;;;;;;4.10;2.00;;;;;;;31.88;26.42;98511.38;5033493;28;20310;-73
2021/03/04 11:11:50;;;;;;;3.22;1.80;;;;;;;31.33;27.66;98507.34;5033337;28;20275;-72
2021/03/04 11:14:17;;;;;;;6.68;2.08;;;;;;;31.05;28.04;98512.28;5033938;28;20259;-73
2021/03/04 11:16:43;;;;;;;6.20;2.30;;;;;;;30.74;28.51;98503.03;5033891;28;20249;-71
2021/03/04 11:19:11;;;;;;;4.15;1.90;;;;;;;31.84;27.58;98502.88;5033250;28;20228;-73
2021/03/04 11:21:37;;;;;;;4.43;1.98;;;;;;;33.00;26.24;98496.91;5033587;28;20306;-72
2021/03/04 11:24:06;;;;;;;7.60;2.30;;;;;;;32.15;26.57;98503.06;5033340;28;20321;-73
2021/03/04 11:26:32;;;;;;;5.32;2.03;;;;;;;31.03;28.33;98481.94;5033730;28;20271;-74
2021/03/04 11:28:59;;;;;;;5.20;1.92;;;;;;;30.92;28.04;98486.97;5034117;28;20635;-74
2021/03/04 11:31:25;;;;;;;3.17;2.10;;;;;;;32.17;26.42;98487.41;5034290;28;20204;-73
2021/03/04 11:33:52;;;;;;;6.68;1.90;;;;;;;33.07;25.72;98478.69;5033507;28;20243;-73